createdAt,value
2018-05-29T00:01:03.718Z,0
2018-05-29T00:02:13.705Z,0
2018-05-29T00:03:23.671Z,0
2018-05-29T00:04:33.390Z,0
2018-05-29T00:05:43.367Z,0
2018-05-29T00:06:53.084Z,0
2018-05-29T00:08:03.070Z,0
2018-05-29T00:09:13.061Z,0
2018-05-29T00:10:22.780Z,0
2018-05-29T00:11:32.753Z,0
2018-05-29T00:12:42.830Z,0
2018-05-29T00:13:52.818Z,0
2018-05-29T00:15:02.787Z,0
2018-05-29T00:16:12.510Z,0
2018-05-29T00:17:22.233Z,0
2018-05-29T00:18:32.209Z,0
2018-05-29T00:19:42.187Z,0
2018-05-29T00:20:51.906Z,0
2018-05-29T00:22:01.901Z,0
2018-05-29T00:23:11.361Z,0
2018-05-29T00:24:21.336Z,0
2018-05-29T00:25:31.317Z,0
2018-05-29T00:26:41.034Z,0
2018-05-29T00:27:51.007Z,0
2018-05-29T00:29:00.985Z,0
2018-05-29T00:30:10.693Z,0
2018-05-29T00:31:20.673Z,0
2018-05-29T00:32:30.384Z,0
2018-05-29T00:33:39.836Z,0
2018-05-29T00:34:49.546Z,0
2018-05-29T00:35:59.534Z,0
2018-05-29T00:37:09.509Z,0
2018-05-29T00:38:19.499Z,0
2018-05-29T00:39:29.206Z,0
2018-05-29T00:40:39.181Z,0
2018-05-29T00:41:49.159Z,0
2018-05-29T00:42:59.153Z,0
2018-05-29T00:44:09.135Z,0
2018-05-29T00:45:19.114Z,0
2018-05-29T00:46:29.090Z,0
2018-05-29T00:47:39.061Z,0
2018-05-29T00:48:49.040Z,0
2018-05-29T00:49:58.749Z,0
2018-05-29T00:51:08.736Z,0
2018-05-29T00:52:18.718Z,0
2018-05-29T00:53:28.439Z,0
2018-05-29T00:54:38.159Z,0
2018-05-29T00:55:48.131Z,0
2018-05-29T00:56:57.858Z,0
2018-05-29T00:58:07.991Z,0
2018-05-29T00:59:17.699Z,0
2018-05-29T01:00:27.419Z,0
2018-05-29T01:01:37.402Z,0
2018-05-29T01:02:47.380Z,0
2018-05-29T01:03:57.354Z,0
2018-05-29T01:05:07.335Z,0
2018-05-29T01:06:17.305Z,0
2018-05-29T01:07:26.773Z,0
2018-05-29T01:08:36.747Z,0
2018-05-29T01:09:46.458Z,0
2018-05-29T01:10:56.181Z,0
2018-05-29T01:12:06.146Z,0
2018-05-29T01:13:15.853Z,0
2018-05-29T01:14:25.829Z,0
2018-05-29T01:15:35.810Z,0
2018-05-29T01:16:45.521Z,0
2018-05-29T01:17:55.501Z,0
2018-05-29T01:19:05.479Z,0
2018-05-29T01:20:15.505Z,0
2018-05-29T01:21:25.226Z,0
2018-05-29T01:22:35.203Z,0
2018-05-29T01:23:44.920Z,0
2018-05-29T01:24:54.896Z,0
2018-05-29T01:26:04.889Z,0
2018-05-29T01:27:14.609Z,0
2018-05-29T01:28:24.594Z,0
2018-05-29T01:29:34.565Z,0
2018-05-29T01:30:44.276Z,0
2018-05-29T01:31:53.986Z,0
2018-05-29T01:33:03.958Z,0
2018-05-29T01:34:14.032Z,0
2018-05-29T01:35:24.008Z,0
2018-05-29T01:36:33.976Z,0
2018-05-29T01:37:43.951Z,0
2018-05-29T01:38:53.924Z,0
2018-05-29T01:40:03.907Z,0
2018-05-29T01:41:13.636Z,0
2018-05-29T01:42:23.353Z,0
2018-05-29T01:43:33.078Z,0
2018-05-29T01:44:42.803Z,0
2018-05-29T01:45:52.773Z,0
2018-05-29T01:47:02.745Z,0
2018-05-29T01:48:12.728Z,0
2018-05-29T01:49:22.713Z,0
2018-05-29T01:50:32.696Z,0
2018-05-29T01:51:42.409Z,0
2018-05-29T01:52:52.393Z,0
2018-05-29T01:54:02.365Z,0
2018-05-29T01:55:12.074Z,0
2018-05-29T01:56:22.056Z,0
2018-05-29T01:57:32.020Z,0
2018-05-29T01:58:41.988Z,0
2018-05-29T01:59:51.977Z,0
2018-05-29T02:01:01.701Z,0
2018-05-29T02:02:11.681Z,0
2018-05-29T02:03:21.675Z,0
2018-05-29T02:04:31.877Z,0
2018-05-29T02:05:41.671Z,0
2018-05-29T02:06:51.394Z,4
2018-05-29T02:08:01.365Z,4
2018-05-29T02:09:11.341Z,4
2018-05-29T02:10:21.330Z,0
2018-05-29T02:11:31.304Z,4
2018-05-29T02:12:41.024Z,4
2018-05-29T02:13:50.749Z,4
2018-05-29T02:15:00.465Z,4
2018-05-29T02:16:10.441Z,8
2018-05-29T02:17:20.412Z,4
2018-05-29T02:18:30.388Z,8
2018-05-29T02:19:39.599Z,8
2018-05-29T02:20:49.563Z,12
2018-05-29T02:21:59.542Z,12
2018-05-29T02:23:09.252Z,12
2018-05-29T02:24:18.978Z,16
2018-05-29T02:25:28.951Z,20
2018-05-29T02:26:38.402Z,24
2018-05-29T02:27:47.860Z,24
2018-05-29T02:28:57.841Z,28
2018-05-29T02:30:07.824Z,36
2018-05-29T02:31:17.823Z,40
2018-05-29T02:32:27.547Z,48
2018-05-29T02:33:37.285Z,52
2018-05-29T02:34:47.280Z,60
2018-05-29T02:35:57.250Z,68
2018-05-29T02:37:07.232Z,80
2018-05-29T02:38:17.204Z,92
2018-05-29T02:39:27.180Z,104
2018-05-29T02:40:37.156Z,120
2018-05-29T02:41:47.139Z,136
2018-05-29T02:42:57.146Z,160
2018-05-29T02:44:06.870Z,180
2018-05-29T02:45:16.861Z,204
2018-05-29T02:46:26.850Z,228
2018-05-29T02:47:36.827Z,256
2018-05-29T02:48:46.814Z,288
2018-05-29T02:49:56.794Z,320
2018-05-29T02:51:06.771Z,356
2018-05-29T02:52:16.481Z,396
2018-05-29T02:53:26.453Z,432
2018-05-29T02:54:36.424Z,476
2018-05-29T02:55:45.887Z,520
2018-05-29T02:56:55.866Z,564
2018-05-29T02:58:05.845Z,616
2018-05-29T02:59:15.809Z,668
2018-05-29T03:00:25.535Z,720
2018-05-29T03:01:35.253Z,776
2018-05-29T03:02:45.228Z,836
2018-05-29T03:03:55.215Z,892
2018-05-29T03:05:05.185Z,960
2018-05-29T03:06:14.635Z,1020
2018-05-29T03:07:24.618Z,1088
2018-05-29T03:08:34.605Z,1168
2018-05-29T03:09:44.576Z,1240
2018-05-29T03:10:54.551Z,1324
2018-05-29T03:12:04.515Z,1412
2018-05-29T03:13:14.492Z,1456
2018-05-29T03:14:24.472Z,1528
2018-05-29T03:15:34.181Z,1612
2018-05-29T03:16:44.140Z,1700
2018-05-29T03:17:54.110Z,1772
2018-05-29T03:19:04.099Z,1852
2018-05-29T03:20:14.078Z,1932
2018-05-29T03:21:23.793Z,2008
2018-05-29T03:22:33.772Z,2088
2018-05-29T03:23:43.751Z,2172
2018-05-29T03:24:53.738Z,2260
2018-05-29T03:26:03.460Z,2344
2018-05-29T03:27:13.170Z,2428
2018-05-29T03:28:23.149Z,2512
2018-05-29T03:29:33.131Z,2600
2018-05-29T03:30:42.858Z,2684
2018-05-29T03:31:52.576Z,2776
2018-05-29T03:33:02.572Z,2864
2018-05-29T03:34:12.556Z,2948
2018-05-29T03:35:22.540Z,3032
2018-05-29T03:36:32.515Z,3116
2018-05-29T03:37:42.237Z,3196
2018-05-29T03:38:52.224Z,3284
2018-05-29T03:40:01.963Z,3360
2018-05-29T03:41:11.681Z,3440
2018-05-29T03:42:21.662Z,3524
2018-05-29T03:43:31.674Z,3600
2018-05-29T03:44:41.395Z,3680
2018-05-29T03:45:51.363Z,3752
2018-05-29T03:47:01.328Z,3832
2018-05-29T03:48:11.038Z,3904
2018-05-29T03:49:20.486Z,3976
2018-05-29T03:50:30.196Z,4052
2018-05-29T03:51:40.180Z,4120
2018-05-29T03:52:49.900Z,4192
2018-05-29T03:53:59.617Z,4264
2018-05-29T03:55:09.588Z,4332
2018-05-29T03:56:19.569Z,4396
2018-05-29T03:57:29.546Z,4464
2018-05-29T03:58:39.518Z,4532
2018-05-29T03:59:49.221Z,4596
2018-05-29T04:00:58.930Z,4660
2018-05-29T04:02:08.917Z,4724
2018-05-29T04:03:18.889Z,4784
2018-05-29T04:04:28.859Z,4848
2018-05-29T04:05:38.832Z,4912
2018-05-29T04:06:48.799Z,4968
2018-05-29T04:07:58.770Z,5024
2018-05-29T04:09:08.477Z,5076
2018-05-29T04:10:18.459Z,5136
2018-05-29T04:11:28.180Z,5192
2018-05-29T04:12:38.150Z,5252
2018-05-29T04:13:47.611Z,5304
2018-05-29T04:14:57.601Z,5360
2018-05-29T04:16:07.581Z,5416
2018-05-29T04:17:17.548Z,5472
2018-05-29T04:18:27.259Z,5524
2018-05-29T04:19:37.243Z,5584
2018-05-29T04:20:47.221Z,5640
2018-05-29T04:21:56.952Z,5684
2018-05-29T04:23:06.933Z,5736
2018-05-29T04:24:16.904Z,5788
2018-05-29T04:25:26.627Z,5836
2018-05-29T04:26:36.349Z,5884
2018-05-29T04:27:46.066Z,5928
2018-05-29T04:28:55.786Z,5976
2018-05-29T04:30:05.249Z,6020
2018-05-29T04:31:14.956Z,6060
2018-05-29T04:32:24.406Z,6104
2018-05-29T04:33:34.124Z,6148
2018-05-29T04:34:44.089Z,6188
2018-05-29T04:35:53.547Z,6232
2018-05-29T04:37:03.517Z,6276
2018-05-29T04:38:13.487Z,6316
2018-05-29T04:39:23.461Z,6364
2018-05-29T04:40:33.454Z,6408
2018-05-29T04:41:43.161Z,6452
2018-05-29T04:42:53.139Z,6496
2018-05-29T04:44:03.109Z,6536
2018-05-29T04:45:12.836Z,6572
2018-05-29T04:46:22.815Z,6608
2018-05-29T04:47:32.800Z,6644
2018-05-29T04:48:42.523Z,6676
2018-05-29T04:49:52.076Z,6708
2018-05-29T04:51:02.089Z,6744
2018-05-29T04:52:11.815Z,6772
2018-05-29T04:53:21.811Z,6808
2018-05-29T04:54:31.777Z,6840
2018-05-29T04:55:41.509Z,6844
2018-05-29T04:56:51.246Z,6880
2018-05-29T04:58:01.215Z,6936
2018-05-29T04:59:11.198Z,6964
2018-05-29T05:00:21.172Z,7004
2018-05-29T05:01:31.175Z,7032
2018-05-29T05:02:41.372Z,7060
2018-05-29T05:03:51.096Z,7092
2018-05-29T05:05:01.076Z,7124
2018-05-29T05:06:11.069Z,7148
2018-05-29T05:07:20.531Z,7180
2018-05-29T05:08:30.266Z,7208
2018-05-29T05:09:39.993Z,7236
2018-05-29T05:10:49.442Z,7260
2018-05-29T05:11:59.439Z,7288
2018-05-29T05:13:09.436Z,7312
2018-05-29T05:14:19.411Z,7336
2018-05-29T05:15:29.380Z,7364
2018-05-29T05:16:39.356Z,7392
2018-05-29T05:17:49.062Z,7408
2018-05-29T05:18:58.772Z,7436
2018-05-29T05:20:08.533Z,7464
2018-05-29T05:21:18.544Z,7488
2018-05-29T05:22:27.739Z,7512
2018-05-29T05:23:37.607Z,7536
2018-05-29T05:24:47.676Z,7564
2018-05-29T05:25:57.398Z,7580
2018-05-29T05:27:07.405Z,7604
2018-05-29T05:28:17.398Z,7624
2018-05-29T05:29:27.409Z,7648
2018-05-29T05:30:37.547Z,7676
2018-05-29T05:31:47.570Z,7704
2018-05-29T05:32:57.575Z,7736
2018-05-29T05:34:07.582Z,7768
2018-05-29T05:35:17.331Z,7804
2018-05-29T05:36:27.576Z,7848
2018-05-29T05:37:37.587Z,7876
2018-05-29T05:38:47.559Z,7912
2018-05-29T05:39:57.554Z,7936
2018-05-29T05:41:07.509Z,7964
2018-05-29T05:42:17.248Z,7980
2018-05-29T05:43:27.237Z,8000
2018-05-29T05:44:36.950Z,8012
2018-05-29T05:45:46.933Z,8028
2018-05-29T05:46:56.941Z,8048
2018-05-29T05:48:06.420Z,8060
2018-05-29T05:49:16.396Z,8076
2018-05-29T05:50:26.122Z,8092
2018-05-29T05:51:36.110Z,8108
2018-05-29T05:52:46.246Z,8116
2018-05-29T05:53:56.335Z,8120
2018-05-29T05:55:05.794Z,8132
2018-05-29T05:56:15.530Z,8140
2018-05-29T05:57:25.503Z,8148
2018-05-29T05:58:35.825Z,8156
2018-05-29T05:59:45.808Z,8164
2018-05-29T06:00:55.783Z,8172
2018-05-29T06:02:05.757Z,8176
2018-05-29T06:03:15.477Z,8188
2018-05-29T06:04:25.540Z,8204
2018-05-29T06:05:35.613Z,8208
2018-05-29T06:06:45.620Z,8224
2018-05-29T06:07:55.639Z,8236
2018-05-29T06:09:05.616Z,8248
2018-05-29T06:10:15.618Z,8252
2018-05-29T06:11:25.620Z,8272
2018-05-29T06:12:35.625Z,8292
2018-05-29T06:13:45.356Z,8308
2018-05-29T06:14:55.338Z,8328
2018-05-29T06:16:05.163Z,8396
2018-05-29T06:17:15.164Z,8448
2018-05-29T06:18:25.162Z,8504
2018-05-29T06:19:35.142Z,8540
2018-05-29T06:20:44.633Z,8592
2018-05-29T06:21:54.694Z,8644
2018-05-29T06:23:04.173Z,8676
2018-05-29T06:24:14.186Z,8732
2018-05-29T06:25:24.202Z,8772
2018-05-29T06:26:34.174Z,8812
2018-05-29T06:27:44.176Z,8840
2018-05-29T06:28:54.182Z,8868
2018-05-29T06:30:03.663Z,8908
2018-05-29T06:31:13.657Z,8940
2018-05-29T06:32:23.640Z,8968
2018-05-29T06:33:33.619Z,9008
2018-05-29T06:34:43.352Z,9008
2018-05-29T06:35:53.088Z,9048
2018-05-29T06:37:03.098Z,9052
2018-05-29T06:38:13.137Z,9056
2018-05-29T06:39:23.187Z,9084
2018-05-29T06:40:33.178Z,9088
2018-05-29T06:41:43.176Z,9100
2018-05-29T06:42:52.893Z,9124
2018-05-29T06:44:02.935Z,9124
2018-05-29T06:45:13.312Z,9152
2018-05-29T06:46:23.334Z,9152
2018-05-29T06:47:33.054Z,9164
2018-05-29T06:48:43.050Z,9176
2018-05-29T06:49:52.763Z,9172
2018-05-29T06:51:02.754Z,9184
2018-05-29T06:52:12.234Z,9184
2018-05-29T06:53:22.218Z,9184
2018-05-29T06:54:31.945Z,9192
2018-05-29T06:55:41.932Z,9176
2018-05-29T06:56:51.932Z,9192
2018-05-29T06:58:01.923Z,9204
2018-05-29T06:59:11.642Z,9216
2018-05-29T07:00:21.641Z,9220
2018-05-29T07:01:31.615Z,9232
2018-05-29T07:02:41.635Z,9236
2018-05-29T07:03:51.424Z,9244
2018-05-29T07:05:00.987Z,9248
2018-05-29T07:06:10.994Z,9248
2018-05-29T07:07:20.725Z,9288
2018-05-29T07:08:30.708Z,9276
2018-05-29T07:09:40.699Z,9320
2018-05-29T07:10:50.432Z,9340
2018-05-29T07:12:00.439Z,9352
2018-05-29T07:13:10.166Z,9380
2018-05-29T07:14:19.893Z,9384
2018-05-29T07:15:29.956Z,9420
2018-05-29T07:16:39.931Z,9452
2018-05-29T07:17:49.923Z,9456
2018-05-29T07:18:59.657Z,9456
2018-05-29T07:20:09.391Z,9464
2018-05-29T07:21:19.104Z,9488
2018-05-29T07:22:28.828Z,9504
2018-05-29T07:23:38.832Z,9524
2018-05-29T07:24:49.033Z,9544
2018-05-29T07:25:59.025Z,9576
2018-05-29T07:27:09.016Z,9600
2018-05-29T07:28:19.059Z,9636
2018-05-29T07:29:29.052Z,9624
2018-05-29T07:30:39.064Z,9600
2018-05-29T07:31:49.055Z,9648
2018-05-29T07:32:59.064Z,9692
2018-05-29T07:34:08.267Z,9732
2018-05-29T07:35:18.263Z,9732
2018-05-29T07:36:28.025Z,9732
2018-05-29T07:37:37.796Z,9732
2018-05-29T07:38:47.818Z,9732
2018-05-29T07:39:57.851Z,9720
2018-05-29T07:41:07.317Z,9728
2018-05-29T07:42:17.317Z,9736
2018-05-29T07:43:27.057Z,9732
2018-05-29T07:44:37.084Z,9732
2018-05-29T07:45:46.543Z,9740
2018-05-29T07:46:56.544Z,9744
2018-05-29T07:48:06.291Z,9772
2018-05-29T07:49:16.529Z,9796
2018-05-29T07:50:26.529Z,9796
2018-05-29T07:51:36.536Z,9828
2018-05-29T07:52:46.285Z,9864
2018-05-29T07:53:56.330Z,9896
2018-05-29T07:55:06.419Z,9932
2018-05-29T07:56:16.424Z,9928
2018-05-29T07:57:26.382Z,9936
2018-05-29T07:58:36.107Z,9972
2018-05-29T07:59:46.096Z,9992
2018-05-29T08:00:56.101Z,10008
2018-05-29T08:02:06.095Z,10008
2018-05-29T08:03:16.105Z,9984
2018-05-29T08:04:26.115Z,9988
2018-05-29T08:05:36.132Z,9980
2018-05-29T08:06:45.909Z,10016
2018-05-29T08:07:55.651Z,10036
2018-05-29T08:09:05.697Z,10072
2018-05-29T08:10:15.455Z,10104
2018-05-29T08:11:25.456Z,10160
2018-05-29T08:12:35.463Z,10196
2018-05-29T08:13:45.212Z,10224
2018-05-29T08:14:54.973Z,10268
2018-05-29T08:16:04.964Z,10316
2018-05-29T08:17:14.956Z,10316
2018-05-29T08:18:24.697Z,10308
2018-05-29T08:19:34.688Z,10328
2018-05-29T08:20:44.447Z,10320
2018-05-29T08:21:54.502Z,10332
2018-05-29T08:23:04.503Z,10392
2018-05-29T08:24:14.498Z,10452
2018-05-29T08:25:24.253Z,10500
2018-05-29T08:26:34.030Z,10496
2018-05-29T08:27:44.284Z,10552
2018-05-29T08:28:54.288Z,10948
2018-05-29T08:30:04.414Z,29664
2018-05-29T08:31:14.527Z,46304
2018-05-29T08:32:24.243Z,48032
2018-05-29T08:33:34.025Z,50976
2018-05-29T08:34:44.062Z,53408
2018-05-29T08:35:53.811Z,52448
2018-05-29T08:37:03.606Z,46656
2018-05-29T08:38:13.346Z,47520
2018-05-29T08:39:23.331Z,51744
2018-05-29T08:40:33.239Z,53376
2018-05-29T08:41:43.227Z,54048
2018-05-29T08:42:52.952Z,53248
2018-05-29T08:44:02.694Z,52512
2018-05-29T08:45:12.460Z,53376
2018-05-29T08:46:22.024Z,55200
2018-05-29T08:47:32.161Z,56704
2018-05-29T08:48:41.890Z,55072
2018-05-29T08:49:51.872Z,54528
2018-05-29T08:51:01.879Z,56224
2018-05-29T08:52:11.866Z,58432
2018-05-29T08:53:21.875Z,59744
2018-05-29T08:54:31.888Z,58656
2018-05-29T08:55:41.903Z,60480
2018-05-29T08:56:52.037Z,59200
2018-05-29T08:58:02.102Z,57696
2018-05-29T08:59:12.108Z,58816
2018-05-29T09:00:21.847Z,59072
2018-05-29T09:01:31.835Z,59840
2018-05-29T09:02:41.868Z,62240
2018-05-29T09:03:52.375Z,63264
2018-05-29T09:05:02.500Z,60512
2018-05-29T09:06:12.567Z,61056
2018-05-29T09:07:22.565Z,60608
2018-05-29T09:08:32.580Z,60224
2018-05-29T09:09:42.321Z,61920
2018-05-29T09:10:52.407Z,64128
2018-05-29T09:12:02.637Z,65504
2018-05-29T09:13:12.630Z,66976
2018-05-29T09:14:22.372Z,66464
2018-05-29T09:15:32.382Z,65600
2018-05-29T09:16:42.385Z,67168
2018-05-29T09:17:52.380Z,69984
2018-05-29T09:19:02.378Z,69664
2018-05-29T09:20:12.607Z,68608
2018-05-29T09:21:22.091Z,25088
2018-05-29T09:22:32.088Z,71840
2018-05-29T09:23:42.093Z,73408
2018-05-29T09:24:52.099Z,74432
2018-05-29T09:26:02.165Z,72832
2018-05-29T09:27:12.247Z,75296
2018-05-29T09:28:22.245Z,74944
2018-05-29T09:29:32.283Z,76224
2018-05-29T09:30:42.378Z,76608
2018-05-29T09:31:51.866Z,75328
2018-05-29T09:33:01.925Z,73824
2018-05-29T09:34:11.916Z,76064
2018-05-29T09:35:21.914Z,78912
2018-05-29T09:36:31.649Z,79360
2018-05-29T09:37:41.704Z,79520
2018-05-29T09:38:51.819Z,82752
2018-05-29T09:40:01.602Z,84032
2018-05-29T09:41:11.614Z,83360
2018-05-29T09:42:21.624Z,85888
2018-05-29T09:43:31.632Z,87360
2018-05-29T09:44:41.512Z,82720
2018-05-29T09:45:51.506Z,82208
2018-05-29T09:47:01.688Z,88128
2018-05-29T09:48:11.194Z,87808
2018-05-29T09:49:21.024Z,85536
2018-05-29T09:50:30.494Z,87680
2018-05-29T09:51:40.497Z,86912
2018-05-29T09:52:50.632Z,87712
2018-05-29T09:54:00.352Z,86208
2018-05-29T09:55:10.105Z,84672
2018-05-29T09:56:19.896Z,84832
2018-05-29T09:57:29.908Z,89184
2018-05-29T09:58:39.374Z,88576
2018-05-29T09:59:49.125Z,86432
2018-05-29T10:00:58.610Z,91008
2018-05-29T10:02:08.347Z,89920
2018-05-29T10:03:18.343Z,91584
2018-05-29T10:04:28.357Z,90016
2018-05-29T10:05:38.118Z,89120
2018-05-29T10:06:48.389Z,92032
2018-05-29T10:07:58.135Z,90112
2018-05-29T10:09:08.142Z,92512
2018-05-29T10:10:17.895Z,94976
2018-05-29T10:11:28.117Z,98368
2018-05-29T10:12:37.842Z,96384
2018-05-29T10:13:47.627Z,96480
2018-05-29T10:14:57.649Z,98432
2018-05-29T10:16:07.395Z,97952
2018-05-29T10:17:17.180Z,100704
2018-05-29T10:18:27.181Z,100736
2018-05-29T10:19:37.181Z,101600
2018-05-29T10:20:46.911Z,98144
2018-05-29T10:21:56.632Z,101632
2018-05-29T10:23:06.633Z,106016
2018-05-29T10:24:16.634Z,103968
2018-05-29T10:25:26.106Z,102880
2018-05-29T10:26:35.845Z,106560
2018-05-29T10:27:45.852Z,105600
2018-05-29T10:28:55.857Z,103168
2018-05-29T10:30:05.886Z,99680
2018-05-29T10:31:15.922Z,104736
2018-05-29T10:32:25.917Z,106016
2018-05-29T10:33:35.977Z,105504
2018-05-29T10:34:45.723Z,108576
2018-05-29T10:35:55.759Z,111008
2018-05-29T10:37:05.760Z,111904
2018-05-29T10:38:15.758Z,98912
2018-05-29T10:39:25.761Z,104864
2018-05-29T10:40:35.766Z,110880
2018-05-29T10:41:45.533Z,109856
2018-05-29T10:42:55.519Z,108608
2018-05-29T10:44:05.252Z,111424
2018-05-29T10:45:15.268Z,108032
2018-05-29T10:46:25.274Z,107104
2018-05-29T10:47:35.289Z,111680
2018-05-29T10:48:45.279Z,107104
2018-05-29T10:49:55.310Z,115872
2018-05-29T10:51:05.059Z,114848
2018-05-29T10:52:14.803Z,107264
2018-05-29T10:53:24.821Z,111456
2018-05-29T10:54:34.886Z,117568
2018-05-29T10:55:44.920Z,117024
2018-05-29T10:56:54.914Z,114592
2018-05-29T10:58:04.953Z,114016
2018-05-29T10:59:15.160Z,109088
2018-05-29T11:00:25.015Z,115168
2018-05-29T11:01:35.004Z,114400
2018-05-29T11:02:44.747Z,111904
2018-05-29T11:03:54.495Z,108384
2018-05-29T11:05:04.516Z,107968
2018-05-29T11:06:14.538Z,105824
2018-05-29T11:07:24.265Z,110464
2018-05-29T11:08:34.064Z,107744
2018-05-29T11:09:44.072Z,114432
2018-05-29T11:10:53.816Z,113152
2018-05-29T11:12:03.562Z,103584
2018-05-29T11:13:13.548Z,109760
2018-05-29T11:14:23.786Z,112576
2018-05-29T11:15:33.778Z,134496
2018-05-29T11:16:43.802Z,129152
2018-05-29T11:17:53.571Z,109152
2018-05-29T11:19:03.316Z,106880
2018-05-29T11:20:13.674Z,109984
2018-05-29T11:21:23.683Z,118496
2018-05-29T11:22:33.681Z,131200
2018-05-29T11:23:43.426Z,122560
2018-05-29T11:24:53.441Z,110176
2018-05-29T11:26:03.465Z,111488
2018-05-29T11:27:13.475Z,119328
2018-05-29T11:28:23.227Z,122080
2018-05-29T11:29:33.221Z,118848
2018-05-29T11:30:42.719Z,115264
2018-05-29T11:31:52.719Z,109024
2018-05-29T11:33:02.695Z,110208
2018-05-29T11:34:12.692Z,117824
2018-05-29T11:35:22.716Z,119136
2018-05-29T11:36:32.442Z,120256
2018-05-29T11:37:42.438Z,126112
2018-05-29T11:38:52.439Z,130912
2018-05-29T11:40:02.179Z,131968
2018-05-29T11:41:11.930Z,128256
2018-05-29T11:42:21.922Z,120608
2018-05-29T11:43:32.085Z,132800
2018-05-29T11:44:42.128Z,148864
2018-05-29T11:45:52.140Z,129248
2018-05-29T11:47:01.623Z,126496
2018-05-29T11:48:11.377Z,134624
2018-05-29T11:49:21.111Z,119904
2018-05-29T11:50:31.120Z,112576
2018-05-29T11:51:40.854Z,119904
2018-05-29T11:52:50.622Z,129824
2018-05-29T11:54:00.611Z,126176
2018-05-29T11:55:10.356Z,124224
2018-05-29T11:56:20.386Z,128416
2018-05-29T11:57:30.402Z,124416
2018-05-29T11:58:40.153Z,123840
2018-05-29T11:59:50.178Z,126816
2018-05-29T12:00:59.664Z,127136
2018-05-29T12:02:09.694Z,130752
2018-05-29T12:03:19.698Z,127712
2018-05-29T12:04:29.680Z,123104
2018-05-29T12:05:39.416Z,126080
2018-05-29T12:06:49.407Z,132384
2018-05-29T12:07:58.884Z,133216
2018-05-29T12:09:08.358Z,132544
2018-05-29T12:10:18.350Z,132032
2018-05-29T12:11:28.352Z,124896
2018-05-29T12:12:38.132Z,123136
2018-05-29T12:13:48.139Z,122592
2018-05-29T12:14:58.133Z,126336
2018-05-29T12:16:08.216Z,129152
2018-05-29T12:17:18.204Z,131168
2018-05-29T12:18:28.216Z,128320
2018-05-29T12:19:37.976Z,127392
2018-05-29T12:20:47.998Z,128992
2018-05-29T12:21:58.017Z,122208
2018-05-29T12:23:07.762Z,116320
2018-05-29T12:24:17.765Z,127968
2018-05-29T12:25:27.528Z,127968
2018-05-29T12:26:37.283Z,125088
2018-05-29T12:27:47.303Z,127296
2018-05-29T12:28:57.317Z,127680
2018-05-29T12:30:07.319Z,129248
2018-05-29T12:31:17.072Z,134080
2018-05-29T12:32:27.080Z,127360
2018-05-29T12:33:37.236Z,124672
2018-05-29T12:34:46.981Z,133664
2018-05-29T12:35:56.976Z,129856
2018-05-29T12:37:06.969Z,122176
2018-05-29T12:38:16.705Z,125856
2018-05-29T12:39:26.443Z,129760
2018-05-29T12:40:36.448Z,119904
2018-05-29T12:41:46.456Z,119264
2018-05-29T12:42:56.450Z,131168
2018-05-29T12:44:06.457Z,127136
2018-05-29T12:45:16.469Z,118656
2018-05-29T12:46:26.955Z,120224
2018-05-29T12:47:36.963Z,123872
2018-05-29T12:48:46.952Z,128224
2018-05-29T12:49:56.690Z,124672
2018-05-29T12:51:06.691Z,128384
2018-05-29T12:52:16.170Z,129952
2018-05-29T12:53:26.011Z,123200
2018-05-29T12:54:36.006Z,124320
2018-05-29T12:55:46.002Z,126304
2018-05-29T12:56:56.018Z,123552
2018-05-29T12:58:06.020Z,120864
2018-05-29T12:59:16.198Z,124224
2018-05-29T13:00:26.198Z,126208
2018-05-29T13:01:35.938Z,125024
2018-05-29T13:02:45.947Z,124704
2018-05-29T13:03:55.975Z,128064
2018-05-29T13:05:05.718Z,132640
2018-05-29T13:06:15.732Z,125824
2018-05-29T13:07:25.753Z,120128
2018-05-29T13:08:35.511Z,131520
2018-05-29T13:09:45.514Z,141216
2018-05-29T13:10:55.526Z,120544
2018-05-29T13:12:05.270Z,121248
2018-05-29T13:13:15.295Z,121568
2018-05-29T13:14:25.310Z,112512
2018-05-29T13:15:35.333Z,124160
2018-05-29T13:16:45.573Z,124928
2018-05-29T13:17:55.639Z,121952
2018-05-29T13:19:05.374Z,128896
2018-05-29T13:20:15.365Z,126080
2018-05-29T13:21:25.349Z,123680
2018-05-29T13:22:35.521Z,137024
2018-05-29T13:23:45.091Z,143072
2018-05-29T13:24:55.092Z,129504
2018-05-29T13:26:04.814Z,122816
2018-05-29T13:27:14.098Z,125184
2018-05-29T13:28:24.100Z,121408
2018-05-29T13:29:34.117Z,121344
2018-05-29T13:30:44.120Z,124992
2018-05-29T13:31:54.119Z,126592
2018-05-29T13:33:03.854Z,126016
2018-05-29T13:34:13.863Z,127200
2018-05-29T13:35:24.106Z,124192
2018-05-29T13:36:34.102Z,126368
2018-05-29T13:37:44.104Z,127520
2018-05-29T13:38:54.132Z,123072
2018-05-29T13:40:04.145Z,122592
2018-05-29T13:41:13.887Z,123072
2018-05-29T13:42:23.639Z,121504
2018-05-29T13:43:33.121Z,121824
2018-05-29T13:44:43.173Z,127552
2018-05-29T13:45:52.923Z,123360
2018-05-29T13:47:02.403Z,118368
2018-05-29T13:48:12.146Z,120224
2018-05-29T13:49:22.298Z,119936
2018-05-29T13:50:32.038Z,115776
2018-05-29T13:51:42.055Z,114272
2018-05-29T13:52:52.066Z,115232
2018-05-29T13:54:02.088Z,118624
2018-05-29T13:55:12.096Z,122240
2018-05-29T13:56:22.124Z,118880
2018-05-29T13:57:32.149Z,124320
2018-05-29T13:58:42.157Z,129568
2018-05-29T13:59:52.326Z,130304
2018-05-29T14:01:02.346Z,125280
2018-05-29T14:02:12.345Z,119200
2018-05-29T14:03:22.455Z,120032
2018-05-29T14:04:32.473Z,126976
2018-05-29T14:05:42.500Z,120000
2018-05-29T14:06:52.262Z,107744
2018-05-29T14:08:02.287Z,116384
2018-05-29T14:09:12.123Z,118880
2018-05-29T14:10:21.858Z,105792
2018-05-29T14:11:31.873Z,112416
2018-05-29T14:12:41.628Z,113536
2018-05-29T14:13:51.376Z,113312
2018-05-29T14:15:01.634Z,116736
2018-05-29T14:16:11.128Z,117440
2018-05-29T14:17:21.154Z,120768
2018-05-29T14:18:31.163Z,121088
2018-05-29T14:19:41.216Z,116864
2018-05-29T14:20:50.715Z,118112
2018-05-29T14:22:00.713Z,113984
2018-05-29T14:23:10.735Z,114112
2018-05-29T14:24:20.741Z,113024
2018-05-29T14:25:30.503Z,115520
2018-05-29T14:26:40.304Z,116096
2018-05-29T14:27:50.303Z,112928
2018-05-29T14:29:00.299Z,117888
2018-05-29T14:30:10.307Z,114816
2018-05-29T14:31:20.052Z,108768
2018-05-29T14:32:30.066Z,109536
2018-05-29T14:33:40.094Z,109664
2018-05-29T14:34:50.111Z,112832
2018-05-29T14:35:59.838Z,111520
2018-05-29T14:37:09.842Z,108896
2018-05-29T14:38:19.839Z,110656
2018-05-29T14:39:29.864Z,108576
2018-05-29T14:40:39.607Z,108768
2018-05-29T14:41:49.357Z,106592
2018-05-29T14:42:59.108Z,106528
2018-05-29T14:44:09.629Z,111776
2018-05-29T14:45:19.711Z,107328
2018-05-29T14:46:29.192Z,104864
2018-05-29T14:47:39.194Z,107776
2018-05-29T14:48:49.185Z,105440
2018-05-29T14:49:58.940Z,105568
2018-05-29T14:51:09.192Z,109440
2018-05-29T14:52:19.245Z,105920
2018-05-29T14:53:29.417Z,99552
2018-05-29T14:54:39.428Z,103232
2018-05-29T14:55:49.464Z,97120
2018-05-29T14:56:59.474Z,98880
2018-05-29T14:58:09.459Z,105504
2018-05-29T14:59:19.512Z,106752
2018-05-29T15:00:29.514Z,100352
2018-05-29T15:01:39.243Z,100800
2018-05-29T15:02:49.232Z,101664
2018-05-29T15:03:59.224Z,94016
2018-05-29T15:05:08.976Z,102144
2018-05-29T15:06:19.003Z,107008
2018-05-29T15:07:29.024Z,104704
2018-05-29T15:08:39.019Z,96800
2018-05-29T15:09:49.023Z,93792
2018-05-29T15:10:58.768Z,92672
2018-05-29T15:12:08.500Z,91584
2018-05-29T15:13:18.242Z,93664
2018-05-29T15:14:28.256Z,99072
2018-05-29T15:15:38.250Z,95584
2018-05-29T15:16:48.278Z,99616
2018-05-29T15:17:57.745Z,97952
2018-05-29T15:19:07.507Z,90528
2018-05-29T15:20:17.506Z,96576
2018-05-29T15:21:27.532Z,90080
2018-05-29T15:22:37.251Z,87424